All
Laverton Airport (Laverton, Western Australia) LVO Weather
|
Laverton, Western Australia (LVO / YLTN)
Clear skies
Light winds |
|
55 °F |
There is no TAF data available at LVO or any nearby airports.
Recent LVO METAR history
| Date | Time (AWST) | Flight Rules | Wind Dir. | Speed | Type | Height AGL (ft) | Visibility | Temp (°C) | Temp (°F) | Dew Point (°C) | Dew Point (°F) | Rel. Humid. | Pressure | Density Altitude | Remarks |
|---|---|---|---|---|---|---|---|---|---|---|---|---|---|---|---|
| 06-May | 06:00AM | n/a | 110° | 5 kt | Missing | 13° | 55° | 10° | 50° | 82% | 1027 mb | 1,115 ft | |||
| 06-May | 05:00AM | n/a | 130° | 5 kt | Missing | 13° | 55° | 9° | 48° | 77% | 1026 mb | 1,145 ft | |||
| 06-May | 04:00AM | n/a | 130° | 5 kt | Missing | 12° | 53° | 8° | 46° | 76% | 1026 mb | 1,025 ft | |||
| 06-May | 03:00AM | n/a | 130° | 5 kt | Missing | 11° | 51° | 8° | 46° | 82% | 1026 mb | 905 ft | |||
| 06-May | 02:00AM | n/a | 140° | 4 kt | Missing | 10° | 50° | 7° | 44° | 82% | 1026 mb | 785 ft | |||
| 06-May | 01:00AM | n/a | 140° | 4 kt | Missing | 11° | 51° | 7° | 44° | 76% | 1026 mb | 905 ft | |||
| 06-May | 12:00AM | n/a | 80° | 7 kt | Missing | 12° | 53° | 7° | 44° | 71% | 1027 mb | 995 ft | |||
| 05-May | 11:00PM | n/a | 80° | 8 kt | Missing | 13° | 55° | 7° | 44° | 67% | 1027 mb | 1,115 ft | |||
| 05-May | 10:00PM | n/a | 100° | 9 kt | Missing | 13° | 55° | 7° | 44° | 67% | 1027 mb | 1,115 ft | |||
| 05-May | 09:00PM | n/a | 100° | 10 kt | Missing | 14° | 57° | 7° | 44° | 63% | 1026 mb | 1,265 ft | |||
| 05-May | 08:00PM | n/a | 110° | 9 kt | Missing | 15° | 59° | 7° | 44° | 59% | 1026 mb | 1,385 ft | |||
| 05-May | 07:00PM | n/a | 140° | 8 kt | Missing | 16° | 60° | 7° | 44° | 55% | 1026 mb | 1,505 ft | |||
| 05-May | 06:00PM | n/a | 140° | 8 kt | Missing | 17° | 62° | 7° | 44° | 52% | 1025 mb | 1,654 ft | |||
| 05-May | 05:00PM | n/a | 140° | 12 kt | Missing | 18° | 64° | 6° | 42° | 45% | 1025 mb | 1,774 ft | |||
| 05-May | 04:00PM | n/a | 150° | 11 kt | Missing | 19° | 66° | 7° | 44° | 46% | 1024 mb | 1,924 ft | |||
| 05-May | 03:00PM | n/a | 110° | 8 kt | Missing | 19° | 66° | 7° | 44° | 46% | 1024 mb | 1,924 ft | |||
| 05-May | 02:00PM | n/a | 120° | 8 kt | Missing | 19° | 66° | 8° | 46° | 49% | 1024 mb | 1,924 ft | |||
| 05-May | 01:00PM | n/a | 110° | 12 kt | Missing | 18° | 64° | 9° | 48° | 56% | 1025 mb | 1,774 ft | |||
| 05-May | 12:00PM | n/a | 100° | 8 kt | Missing | 17° | 62° | 9° | 48° | 59% | 1026 mb | 1,625 ft | |||
| 05-May | 11:00AM | n/a | 110° | 9 kt | Missing | 16° | 60° | 9° | 48° | 63% | 1027 mb | 1,475 ft | |||
| 05-May | 10:00AM | n/a | 80° | 11 kt | Missing | 16° | 60° | 10° | 50° | 68% | 1027 mb | 1,475 ft | |||
| 05-May | 09:00AM | n/a | 90° | 10 kt | Missing | 15° | 59° | 11° | 51° | 77% | 1027 mb | 1,355 ft | |||
| 05-May | 08:00AM | n/a | 80° | 9 kt | Missing | 14° | 57° | 12° | 53° | 88% | 1027 mb | 1,235 ft | |||
| 05-May | 07:00AM | n/a | 130° | 4 kt | Missing | 10° | 50° | 10° | 50° | 100% | 1026 mb | 785 ft |
Login
| Your browser is unsupported. upgrade your browser |
